Home > Products > Valid Products > TAF

000
FTUS45 KPIH 041120
TAFPIH
TAF
KPIH 041120Z 0412/0512 22007KT P6SM FEW200
     FM041900 27010KT P6SM FEW090
     FM050300 22009KT P6SM BKN200=



000
FTUS45 KPIH 041120
TAFIDA
TAF
KIDA 041120Z 0412/0512 VRB06KT P6SM FEW200
     FM041900 22010KT P6SM FEW090
     FM050300 VRB05KT P6SM BKN200=



000
FTUS45 KPIH 041120
TAFBYI
TAF
KBYI 041120Z 0412/0512 23007KT P6SM SKC
     FM042000 28011KT P6SM FEW090
     FM050300 22010KT P6SM BKN200=



000
FTUS45 KPIH 041120
TAFSUN
TAF
KSUN 041120Z 0412/0512 31011KT P6SM SKC
     FM041700 14008KT P6SM SKC
     FM042100 23010KT P6SM FEW090
     FM050400 31009KT P6SM BKN200
      AMD LTD TO CLD VIS AND WIND TIL 041300=



000
FTUS45 KPIH 040520
TAFBYI
TAF
KBYI 040520Z 0406/0506 23007KT P6SM SKC
     FM042000 28011KT P6SM FEW090
     FM050300 22012KT P6SM BKN200=



000
FTUS45 KPIH 040520
TAFPIH
TAF
KPIH 040520Z 0406/0506 20010KT P6SM SKC
     FM041900 27011G18KT P6SM FEW090
     FM050300 22009KT P6SM BKN200=



000
FTUS45 KPIH 040520
TAFSUN
TAF
KSUN 040520Z 0406/0506 31011KT P6SM SKC
     FM041700 14008KT P6SM SKC
     FM042100 23010KT P6SM FEW090
     FM050400 31009KT P6SM BKN200
      AMD LTD TO CLD VIS AND WIND TIL 041300=



000
FTUS45 KPIH 040520
TAFIDA
TAF
KIDA 040520Z 0406/0506 VRB06KT P6SM SKC
     FM041900 22010KT P6SM FEW090
     FM050300 VRB05KT P6SM BKN200=



000
FTUS45 KPIH 032320
TAFSUN
TAF
KSUN 032320Z 0400/0424 23010KT P6SM SCT080
     FM040400 31011KT P6SM SKC
     FM041700 14008KT P6SM SKC
     FM042100 23010KT P6SM FEW090
      AMD LTD TO CLD VIS AND WIND 0405/0413=



000
FTUS45 KPIH 032320
TAFBYI
TAF
KBYI 032320Z 0400/0424 27011KT P6SM SCT200
     FM040300 23007KT P6SM SKC
     FM042000 28009KT P6SM FEW090=



000
FTUS45 KPIH 032320
TAFIDA
TAF
KIDA 032320Z 0400/0424 20011G20KT P6SM SCT200
     FM040300 VRB06KT P6SM SKC
     FM041900 22010KT P6SM FEW090=



000
FTUS45 KPIH 032320
TAFPIH
TAF
KPIH 032320Z 0400/0424 25011G22KT P6SM SKC
     FM040300 20008KT P6SM SKC
     FM041900 27011G18KT P6SM FEW090=



000
FTUS45 KPIH 031720
TAFBYI
TAF
KBYI 031720Z 0318/0418 28011KT P6SM SCT200
     FM040300 23007KT P6SM SKC=



000
FTUS45 KPIH 031720
TAFPIH
TAF
KPIH 031720Z 0318/0418 25011G22KT P6SM SKC
     FM040300 20008KT P6SM SKC=



000
FTUS45 KPIH 031720
TAFIDA
TAF
KIDA 031720Z 0318/0418 20011G20KT P6SM SCT200
     FM040300 VRB06KT P6SM SKC=



000
FTUS45 KPIH 031720
TAFBYI
TAF
KBYI 031720Z 0318/0418 28011KT P6SM SCT200
     FM040300 23007KT P6SM SKC=



000
FTUS45 KPIH 031720
TAFSUN
TAF
KSUN 031720Z 0318/0418 13011KT P6SM SCT150
     FM032100 23010KT P6SM SCT080
     FM040400 31011KT P6SM SKC=



000
FTUS45 KPIH 031720
TAFPIH
TAF
KPIH 031720Z 0318/0418 25011G22KT P6SM SKC
     FM040300 20008KT P6SM SKC=



000
FTUS45 KPIH 031720
TAFIDA
TAF
KIDA 031720Z 0318/0418 20011G20KT P6SM SCT200
     FM040300 VRB06KT P6SM SKC=



000
FTUS45 KPIH 031120
TAFIDA
TAF
KIDA 031120Z 0312/0412 35006KT P6SM SKC
     FM032000 22010G20KT P6SM FEW090
     FM040300 VRB06KT P6SM SKC=



000
FTUS45 KPIH 031120
TAFIDA
TAF
KIDA 031120Z 0312/0412 35006KT P6SM SKC
     FM032000 22010G20KT P6SM FEW090
     FM040300 VRB06KT P6SM SKC=



000
FTUS45 KPIH 031120
TAFBYI
TAF
KBYI 031120Z 0312/0412 VRB05KT P6SM SKC
     FM032000 26010KT P6SM FEW100
     FM040300 23007KT P6SM SKC=



000
FTUS45 KPIH 031120
TAFSUN
TAF
KSUN 031120Z 0312/0412 31011KT P6SM SKC
     FM031800 13009KT P6SM SCT080
     FM032200 23010KT P6SM SCT080
     FM040400 31009KT P6SM SKC
      AMD LTD TO CLD VIS AND WIND TIL 031300=



000
FTUS45 KPIH 031120
TAFBYI
TAF
KBYI 031120Z 0312/0412 VRB05KT P6SM SKC
     FM032000 26010KT P6SM FEW100
     FM040300 23007KT P6SM SKC=



000
FTUS45 KPIH 031120
TAFSUN
TAF
KSUN 031120Z 0312/0412 31011KT P6SM SKC
     FM031800 13009KT P6SM SCT080
     FM032200 23010KT P6SM SCT080
     FM040400 31009KT P6SM SKC
      AMD LTD TO CLD VIS AND WIND TIL 031300=



000
FTUS45 KPIH 031120
TAFPIH
TAF
KPIH 031120Z 0312/0412 VRB06KT P6SM SCT200
     FM032000 27010G20KT P6SM FEW090
     FM040300 20008KT P6SM SKC=



000
FTUS45 KPIH 031120
TAFPIH
TAF
KPIH 031120Z 0312/0412 VRB06KT P6SM SCT200
     FM032000 27010G20KT P6SM FEW090
     FM040300 20008KT P6SM SKC=



000
FTUS45 KPIH 030520
TAFIDA
TAF
KIDA 030520Z 0306/0406 06008KT P6SM SKC
     FM032000 22012G20KT P6SM FEW080
     FM040300 19007KT P6SM SKC=



000
FTUS45 KPIH 030520
TAFIDA
TAF
KIDA 030520Z 0306/0406 06008KT P6SM SKC
     FM032000 22012G20KT P6SM FEW080
     FM040300 19007KT P6SM SKC=



000
FTUS45 KPIH 030520
TAFSUN
TAF
KSUN 030520Z 0306/0406 31011KT P6SM SKC
     FM031800 13009KT P6SM SCT080
     FM032200 23010KT P6SM SCT080
     FM040400 31009KT P6SM SKC
      AMD LTD TO CLD VIS AND WIND TIL 031300=



000
FTUS45 KPIH 030520
TAFBYI
TAF
KBYI 030520Z 0306/0406 VRB05KT P6SM SCT200
     FM032000 27010KT P6SM FEW080
     FM040300 23007KT P6SM SKC=



000
FTUS45 KPIH 030520
TAFPIH
TAF
KPIH 030520Z 0306/0406 VRB06KT P6SM SCT200
     FM032000 27012G20KT P6SM FEW080
     FM040300 20008KT P6SM SKC=



000
FTUS45 KPIH 030520
TAFSUN
TAF
KSUN 030520Z 0306/0406 31011KT P6SM SKC
     FM031800 13009KT P6SM SCT080
     FM032200 23010KT P6SM SCT080
     FM040400 31009KT P6SM SKC
      AMD LTD TO CLD VIS AND WIND TIL 031300=



000
FTUS45 KPIH 030520
TAFBYI
TAF
KBYI 030520Z 0306/0406 VRB05KT P6SM SCT200
     FM032000 27010KT P6SM FEW080
     FM040300 23007KT P6SM SKC=



000
FTUS45 KPIH 030520
TAFPIH
TAF
KPIH 030520Z 0306/0406 VRB06KT P6SM SCT200
     FM032000 27012G20KT P6SM FEW080
     FM040300 20008KT P6SM SKC=



000
FTUS45 KPIH 022326
TAFSUN
TAF
KSUN 022326Z 0300/0324 22010KT P6SM SKC
     FM030300 31011KT P6SM SKC
     FM031800 13009KT P6SM SCT080
      AMD LTD TO CLD VIS AND WIND 0305/0313=



000
FTUS45 KPIH 022326
TAFPIH
TAF
KPIH 022326Z 0300/0324 VRB06KT P6SM SCT200
     FM032000 27012G20KT P6SM FEW080=



000
FTUS45 KPIH 022326
TAFBYI
TAF
KBYI 022326Z 0300/0324 VRB05KT P6SM SCT200
     FM032000 27010KT P6SM FEW080=



000
FTUS45 KPIH 022326
TAFBYI
TAF
KBYI 022326Z 0300/0324 VRB05KT P6SM SCT200
     FM032000 27010KT P6SM FEW080=



000
FTUS45 KPIH 022326
TAFIDA
TAF
KIDA 022326Z 0300/0324 06008KT P6SM SKC
     FM032000 22012G20KT P6SM FEW080=



000
FTUS45 KPIH 022326
TAFPIH
TAF
KPIH 022326Z 0300/0324 VRB06KT P6SM SCT200
     FM032000 27012G20KT P6SM FEW080=



000
FTUS45 KPIH 022326
TAFSUN
TAF
KSUN 022326Z 0300/0324 22010KT P6SM SKC
     FM030300 31011KT P6SM SKC
     FM031800 13009KT P6SM SCT080
      AMD LTD TO CLD VIS AND WIND 0305/0313=



000
FTUS45 KPIH 022326
TAFIDA
TAF
KIDA 022326Z 0300/0324 06008KT P6SM SKC
     FM032000 22012G20KT P6SM FEW080=



000
FTUS45 KPIH 021721
TAFIDA
TAF
KIDA 021721Z 0218/0318 01007KT P6SM SKC
     FM022000 06008KT P6SM SKC
     FM030200 35005KT P6SM SKC=



000
FTUS45 KPIH 021721
TAFBYI
TAF
KBYI 021721Z 0218/0318 29009KT P6SM SCT200
     FM030200 22006KT P6SM SKC=



000
FTUS45 KPIH 021721
TAFSUN
TAF
KSUN 021721Z 0218/0318 13010KT P6SM FEW150
     FM022000 22010KT P6SM SKC
     FM030300 31011KT P6SM SKC=



000
FTUS45 KPIH 021721
TAFPIH
TAF
KPIH 021721Z 0218/0318 34007KT P6SM SCT250
     FM022100 28011KT P6SM SCT200
     FM030300 VRB06KT P6SM SKC=



000
FTUS45 KPIH 021120
TAFPIH
TAF
KPIH 021120Z 0212/0312 23006KT P6SM SKC
     FM021700 29010KT P6SM SKC
     FM030300 VRB05KT P6SM SKC=



000
FTUS45 KPIH 021120
TAFSUN
TAF
KSUN 021120Z 0212/0312 31010KT P6SM SKC
     FM021700 16008KT P6SM SKC
     FM022000 22010KT P6SM SKC
     FM030300 31009KT P6SM SKC
      AMD LTD TO CLD VIS AND WIND TIL 021300=



000
FTUS45 KPIH 021120
TAFBYI
TAF
KBYI 021120Z 0212/0312 VRB04KT P6SM SKC
     FM021800 29008KT P6SM SKC
     FM030200 22006KT P6SM SKC=



000
FTUS45 KPIH 021120
TAFIDA
TAF
KIDA 021120Z 0212/0312 35005KT P6SM SKC
     FM021700 06008KT P6SM SKC
     FM030200 35004KT P6SM SKC=



000
FTUS45 KPIH 021120
TAFIDA
TAF
KIDA 021120Z 0212/0312 35005KT P6SM SKC
     FM021700 06008KT P6SM SKC
     FM030200 35004KT P6SM SKC=



000
FTUS45 KPIH 021120
TAFPIH
TAF
KPIH 021120Z 0212/0312 23006KT P6SM SKC
     FM021700 29010KT P6SM SKC
     FM030300 VRB05KT P6SM SKC=



000
FTUS45 KPIH 021120
TAFSUN
TAF
KSUN 021120Z 0212/0312 31010KT P6SM SKC
     FM021700 16008KT P6SM SKC
     FM022000 22010KT P6SM SKC
     FM030300 31009KT P6SM SKC
      AMD LTD TO CLD VIS AND WIND TIL 021300=



000
FTUS45 KPIH 021120
TAFBYI
TAF
KBYI 021120Z 0212/0312 VRB04KT P6SM SKC
     FM021800 29008KT P6SM SKC
     FM030200 22006KT P6SM SKC=



000
FTUS45 KPIH 020520
TAFBYI
TAF
KBYI 020520Z 0206/0306 22007KT P6SM SKC
     FM021800 29008KT P6SM SKC=



000
FTUS45 KPIH 020520
TAFIDA
TAF
KIDA 020520Z 0206/0306 VRB05KT P6SM SKC
     FM021700 06008KT P6SM SKC=



000
FTUS45 KPIH 020520
TAFPIH
TAF
KPIH 020520Z 0206/0306 20009KT P6SM SKC
     FM021700 29010KT P6SM SKC
     FM030300 VRB05KT P6SM SKC=



000
FTUS45 KPIH 020520
TAFSUN
TAF
KSUN 020520Z 0206/0306 31011KT P6SM SKC
     FM021700 16008KT P6SM SKC
     FM030300 31009KT P6SM SKC
      AMD LTD TO CLD VIS AND WIND TIL 021300=



000
FTUS45 KPIH 012321
TAFPIH
TAF
KPIH 012321Z 0200/0224 25011G17KT P6SM SCT250
     FM020200 20007KT P6SM SKC=



000
FTUS45 KPIH 012321
TAFIDA
TAF
KIDA 012321Z 0200/0224 22011KT P6SM SCT250
     FM020300 VRB05KT P6SM SKC=



000
FTUS45 KPIH 012321
TAFSUN
TAF
KSUN 012321Z 0200/0224 22010KT P6SM SKC
     FM020400 31011KT P6SM SKC
     FM021700 16008KT P6SM SKC
      AMD LTD TO CLD VIS AND WIND 0205/0213=



000
FTUS45 KPIH 012321
TAFBYI
TAF
KBYI 012321Z 0200/0224 28011KT P6SM SCT250
     FM020300 22007KT P6SM SKC=



000
FTUS45 KPIH 011720
TAFIDA
TAF
KIDA 011720Z 0118/0218 22011KT P6SM SCT250
     FM020300 VRB05KT P6SM SKC
     FM021100 01008KT P6SM SKC=



000
FTUS45 KPIH 011720
TAFPIH
TAF
KPIH 011720Z 0118/0218 25011G17KT P6SM SCT250
     FM020300 20010KT P6SM SKC
     FM021100 VRB05KT P6SM SKC=



000
FTUS45 KPIH 011720
TAFBYI
TAF
KBYI 011720Z 0118/0218 28011KT P6SM SCT250
     FM020300 22007KT P6SM SKC=



000
FTUS45 KPIH 011720
TAFPIH
TAF
KPIH 011720Z 0118/0218 25011G17KT P6SM SCT250
     FM020300 20010KT P6SM SKC
     FM021100 VRB05KT P6SM SKC=



000
FTUS45 KPIH 011720
TAFIDA
TAF
KIDA 011720Z 0118/0218 22011KT P6SM SCT250
     FM020300 VRB05KT P6SM SKC
     FM021100 01008KT P6SM SKC=



000
FTUS45 KPIH 011720
TAFSUN
TAF
KSUN 011720Z 0118/0218 14009KT P6SM SCT200
     FM012000 22010KT P6SM SKC
     FM020400 31011KT P6SM SKC=



000
FTUS45 KPIH 011720
TAFBYI
TAF
KBYI 011720Z 0118/0218 28011KT P6SM SCT250
     FM020300 22007KT P6SM SKC=



000
FTUS45 KPIH 011720
TAFSUN
TAF
KSUN 011720Z 0118/0218 14009KT P6SM SCT200
     FM012000 22010KT P6SM SKC
     FM020400 31011KT P6SM SKC=



    US Dept of Commerce
    National Oceanic and Atmospheric Administration
    National Weather Service
    1325 East West Highway
    Silver Spring, MD 20910
    Page Author: NWS Internet Services Team
Disclaimer
Information Quality
Credits
Glossary
Privacy Policy
Freedom of Information Act (FOIA)
About Us
Career Opportunities